Map

Track Data

SID SEASON NUMBER BASIN SUBBASIN NAME ISO_TIME NATURE LAT LON WMO_WIND WMO_PRES WMO_AGENCY TRACK_TYPE DIST2LAND LANDFALL IFLAG USA_AGENCY USA_ATCF_ID USA_LAT USA_LON USA_RECORD USA_STATUS USA_WIND USA_PRES USA_SSHS USA_R34_NE USA_R34_SE USA_R34_SW USA_R34_NW USA_R50_NE USA_R50_SE USA_R50_SW USA_R50_NW USA_R64_NE USA_R64_SE USA_R64_SW USA_R64_NW USA_POCI USA_ROCI USA_RMW USA_EYE TOKYO_LAT TOKYO_LON TOKYO_GRADE TOKYO_WIND TOKYO_PRES TOKYO_R50_DIR TOKYO_R50_LONG TOKYO_R50_SHORT TOKYO_R30_DIR TOKYO_R30_LONG TOKYO_R30_SHORT TOKYO_LAND CMA_LAT CMA_LON CMA_CAT CMA_WIND CMA_PRES HKO_LAT HKO_LON HKO_CAT HKO_WIND HKO_PRES NEWDELHI_LAT NEWDELHI_LON NEWDELHI_GRADE NEWDELHI_WIND NEWDELHI_PRES NEWDELHI_CI NEWDELHI_DP NEWDELHI_POCI REUNION_LAT REUNION_LON REUNION_TYPE REUNION_WIND REUNION_PRES REUNION_TNUM REUNION_CI REUNION_RMW REUNION_R34_NE REUNION_R34_SE REUNION_R34_SW REUNION_R34_NW REUNION_R50_NE REUNION_R50_SE REUNION_R50_SW REUNION_R50_NW REUNION_R64_NE REUNION_R64_SE REUNION_R64_SW REUNION_R64_NW BOM_LAT BOM_LON BOM_TYPE BOM_WIND BOM_PRES BOM_TNUM BOM_CI BOM_RMW BOM_R34_NE BOM_R34_SE BOM_R34_SW BOM_R34_NW BOM_R50_NE BOM_R50_SE BOM_R50_SW BOM_R50_NW BOM_R64_NE BOM_R64_SE BOM_R64_SW BOM_R64_NW BOM_ROCI BOM_POCI BOM_EYE BOM_POS_METHOD BOM_PRES_METHOD NADI_LAT NADI_LON NADI_CAT NADI_WIND NADI_PRES WELLINGTON_LAT WELLINGTON_LON WELLINGTON_WIND WELLINGTON_PRES DS824_LAT DS824_LON DS824_STAGE DS824_WIND DS824_PRES TD9636_LAT TD9636_LON TD9636_STAGE TD9636_WIND TD9636_PRES TD9635_LAT TD9635_LON TD9635_WIND TD9635_PRES TD9635_ROCI NEUMANN_LAT NEUMANN_LON NEUMANN_CLASS NEUMANN_WIND NEUMANN_PRES MLC_LAT MLC_LON MLC_CLASS MLC_WIND MLC_PRES USA_GUST BOM_GUST BOM_GUST_PER REUNION_GUST REUNION_GUST_PER USA_SEAHGT USA_SEARAD_NE USA_SEARAD_SE USA_SEARAD_SW USA_SEARAD_NW STORM_SPEED STORM_DIR
1996237N14339 1996 71 NA NA FRAN 1996-08-23 12:00:00 TS 14.0000 -21.0000 25 1012 hurdat_atl main 385 385 O_____________ hurdat_atl AL061996 14.0000 -21.0000 TD 25 1012 -1 17 273
1996237N14339 1996 71 NA NA FRAN 1996-08-23 15:00:00 TS 14.0479 -21.8750 main 480 478 P_____________ AL061996 14.0479 -21.8750 TD 25 1011 -1 18 273
1996237N14339 1996 71 NA NA FRAN 1996-08-23 18:00:00 TS 14.1000 -22.8000 25 1011 hurdat_atl main 575 575 O_____________ hurdat_atl AL061996 14.1000 -22.8000 TD 25 1011 -1 19 273
1996237N14339 1996 71 NA NA FRAN 1996-08-23 21:00:00 TS 14.1574 -23.7999 main 680 680 P_____________ AL061996 14.1574 -23.7999 TD 25 1010 -1 19 273
1996237N14339 1996 71 NA NA FRAN 1996-08-24 00:00:00 TS 14.2000 -24.8000 25 1010 hurdat_atl main 788 788 O_____________ hurdat_atl AL061996 14.2000 -24.8000 TD 25 1010 -1 19 272
1996237N14339 1996 71 NA NA FRAN 1996-08-24 03:00:00 TS 14.2146 -25.7300 main 885 885 P_____________ AL061996 14.2146 -25.7300 TD 27 1009 -1 17 270
1996237N14339 1996 71 NA NA FRAN 1996-08-24 06:00:00 TS 14.2000 -26.6000 30 1009 hurdat_atl main 981 981 O_____________ hurdat_atl AL061996 14.2000 -26.6000 TD 30 1009 -1 17 268
1996237N14339 1996 71 NA NA FRAN 1996-08-24 09:00:00 TS 14.1497 -27.4301 main 1068 1068 P_____________ AL061996 14.1497 -27.4301 TD 30 1009 -1 16 266
1996237N14339 1996 71 NA NA FRAN 1996-08-24 12:00:00 TS 14.1000 -28.2000 30 1009 hurdat_atl main 1154 1154 O_____________ hurdat_atl AL061996 14.1000 -28.2000 TD 30 1009 -1 15 268
1996237N14339 1996 71 NA NA FRAN 1996-08-24 15:00:00 TS 14.0923 -28.9299 main 1230 1230 P_____________ AL061996 14.0923 -28.9299 TD 30 1009 -1 14 270
1996237N14339 1996 71 NA NA FRAN 1996-08-24 18:00:00 TS 14.1000 -29.6000 30 1009 hurdat_atl main 1305 1305 O_____________ hurdat_atl AL061996 14.1000 -29.6000 TD 30 1009 -1 12 270
1996237N14339 1996 71 NA NA FRAN 1996-08-24 21:00:00 TS 14.0847 -30.2151 main 1369 1369 P_____________ AL061996 14.0847 -30.2151 TD 27 1009 -1 12 270
1996237N14339 1996 71 NA NA FRAN 1996-08-25 00:00:00 TS 14.1000 -30.8000 25 1009 hurdat_atl main 1434 1434 O_____________ hurdat_atl AL061996 14.1000 -30.8000 TD 25 1009 -1 11 275
1996237N14339 1996 71 NA NA FRAN 1996-08-25 03:00:00 TS 14.1772 -31.3850 main 1498 1498 P_____________ AL061996 14.1772 -31.3850 TD 25 1009 -1 12 280
1996237N14339 1996 71 NA NA FRAN 1996-08-25 06:00:00 TS 14.3000 -32.0000 25 1009 hurdat_atl main 1562 1562 O_____________ hurdat_atl AL061996 14.3000 -32.0000 TD 25 1009 -1 13 283
1996237N14339 1996 71 NA NA FRAN 1996-08-25 09:00:00 TS 14.4572 -32.6624 main 1636 1636 P_____________ AL061996 14.4572 -32.6624 TD 25 1009 -1 14 282
1996237N14339 1996 71 NA NA FRAN 1996-08-25 12:00:00 TS 14.6000 -33.4000 25 1009 hurdat_atl main 1711 1711 O_____________ hurdat_atl AL061996 14.6000 -33.4000 TD 25 1009 -1 15 278
1996237N14339 1996 71 NA NA FRAN 1996-08-25 15:00:00 TS 14.6572 -34.2128 main 1796 1796 P_____________ AL061996 14.6572 -34.2128 TD 25 1009 -1 16 273
1996237N14339 1996 71 NA NA FRAN 1996-08-25 18:00:00 TS 14.7000 -35.1000 25 1009 hurdat_atl main 1893 1893 O_____________ hurdat_atl AL061996 14.7000 -35.1000 TD 25 1009 -1 18 274
1996237N14339 1996 71 NA NA FRAN 1996-08-25 21:00:00 TS 14.7926 -36.0574 main 2000 1965 P_____________ AL061996 14.7926 -36.0574 TD 25 1009 -1 19 276
1996237N14339 1996 71 NA NA FRAN 1996-08-26 00:00:00 TS 14.9000 -37.0000 25 1009 hurdat_atl main 1965 1903 O_____________ hurdat_atl AL061996 14.9000 -37.0000 TD 25 1009 -1 17 277
1996237N14339 1996 71 NA NA FRAN 1996-08-26 03:00:00 TS 14.9996 -37.8376 main 1903 1843 P_____________ AL061996 14.9996 -37.8376 TD 25 1009 -1 16 277
1996237N14339 1996 71 NA NA FRAN 1996-08-26 06:00:00 TS 15.1000 -38.6000 25 1009 hurdat_atl main 1843 1793 O_____________ hurdat_atl AL061996 15.1000 -38.6000 TD 25 1009 -1 14 279
1996237N14339 1996 71 NA NA FRAN 1996-08-26 09:00:00 TS 15.2221 -39.3148 main 1793 1745 P_____________ AL061996 15.2221 -39.3148 TD 27 1009 -1 14 278
1996237N14339 1996 71 NA NA FRAN 1996-08-26 12:00:00 TS 15.3000 -40.0000 30 1009 hurdat_atl main 1745 1692 O_____________ hurdat_atl AL061996 15.3000 -40.0000 TD 30 1009 -1 13 273
1996237N14339 1996 71 NA NA FRAN 1996-08-26 15:00:00 TS 15.2873 -40.7076 main 1692 1632 P_____________ AL061996 15.2873 -40.7076 TD 30 1008 -1 14 266
1996237N14339 1996 71 NA NA FRAN 1996-08-26 18:00:00 TS 15.2000 -41.4000 30 1008 hurdat_atl main 1632 1581 O_____________ hurdat_atl AL061996 15.2000 -41.4000 TD 30 1008 -1 13 260
1996237N14339 1996 71 NA NA FRAN 1996-08-26 21:00:00 TS 15.0574 -42.0726 main 1574 1515 P_____________ AL061996 15.0574 -42.0726 TD 30 1007 -1 13 257
1996237N14339 1996 71 NA NA FRAN 1996-08-27 00:00:00 TS 14.9000 -42.7000 30 1007 hurdat_atl main 1515 1473 O_____________ hurdat_atl AL061996 14.9000 -42.7000 TD 30 1007 -1 12 257
1996237N14339 1996 71 NA NA FRAN 1996-08-27 03:00:00 TS 14.7848 -43.2649 main 1466 1425 P_____________ AL061996 14.7848 -43.2649 TD 30 1006 -1 11 259
1996237N14339 1996 71 NA NA FRAN 1996-08-27 06:00:00 TS 14.7000 -43.8000 30 1006 hurdat_atl main 1425 1385 O_____________ hurdat_atl AL061996 14.7000 -43.8000 TD 30 1006 -1 11 262
1996237N14339 1996 71 NA NA FRAN 1996-08-27 09:00:00 TS 14.6348 -44.3425 main 1385 1348 P_____________ AL061996 14.6348 -44.3425 TD 32 1005 -1 11 265
1996237N14339 1996 71 NA NA FRAN 1996-08-27 12:00:00 TS 14.6000 -44.9000 35 1005 hurdat_atl main 1348 1315 O_____________ hurdat_atl AL061996 14.6000 -44.9000 TS 35 1005 0 11 268
1996237N14339 1996 71 NA NA FRAN 1996-08-27 15:00:00 TS 14.5923 -45.4775 main 1308 1270 P_____________ AL061996 14.5923 -45.4775 TS 37 1004 0 12 270
1996237N14339 1996 71 NA NA FRAN 1996-08-27 18:00:00 TS 14.6000 -46.1000 40 1004 hurdat_atl main 1270 1235 O_____________ hurdat_atl AL061996 14.6000 -46.1000 TS 40 1004 0 13 269
1996237N14339 1996 71 NA NA FRAN 1996-08-27 21:00:00 TS 14.5698 -46.7703 main 1229 1191 P_____________ AL061996 14.5698 -46.7703 TS 42 1003 0 14 270
1996237N14339 1996 71 NA NA FRAN 1996-08-28 00:00:00 TS 14.6000 -47.5000 45 1002 hurdat_atl main 1191 1167 O_____________ hurdat_atl AL061996 14.6000 -47.5000 TS 45 1002 0 15 277
1996237N14339 1996 71 NA NA FRAN 1996-08-28 03:00:00 TS 14.7624 -48.2849 main 1172 1156 P_____________ AL061996 14.7624 -48.2849 TS 47 1001 0 16 284
1996237N14339 1996 71 NA NA FRAN 1996-08-28 06:00:00 TS 15.0000 -49.1000 50 1000 hurdat_atl main 1159 1142 O_____________ hurdat_atl AL061996 15.0000 -49.1000 TS 50 1000 0 16 287
1996237N14339 1996 71 NA NA FRAN 1996-08-28 09:00:00 TS 15.2497 -49.9000 main 1142 1138 P_____________ AL061996 15.2497 -49.9000 TS 52 997 0 16 288
1996237N14339 1996 71 NA NA FRAN 1996-08-28 12:00:00 TS 15.5000 -50.7000 55 995 hurdat_atl main 1141 1131 O_____________ hurdat_atl AL061996 15.5000 -50.7000 TS 55 995 0 16 286
1996237N14339 1996 71 NA NA FRAN 1996-08-28 15:00:00 TS 15.6999 -51.5153 main 1136 1107 P_____________ AL061996 15.6999 -51.5153 TS 57 992 0 16 285
1996237N14339 1996 71 NA NA FRAN 1996-08-28 18:00:00 TS 15.9000 -52.3000 60 990 hurdat_atl main 1107 1055 O_____________ hurdat_atl AL061996 15.9000 -52.3000 TS 60 990 0 15 287
1996237N14339 1996 71 NA NA FRAN 1996-08-28 21:00:00 TS 16.1347 -53.0227 main 1055 1014 P_____________ AL061996 16.1347 -53.0227 TS 62 988 0 14 290
1996237N14339 1996 71 NA NA FRAN 1996-08-29 00:00:00 TS 16.4000 -53.7000 65 987 hurdat_atl main 1014 980 O_____________ hurdat_atl AL061996 16.4000 -53.7000 HU 65 987 1 14 293
1996237N14339 1996 71 NA NA FRAN 1996-08-29 03:00:00 TS 16.6772 -54.3578 main 979 956 P_____________ AL061996 16.6772 -54.3578 HU 65 987 1 14 296
1996237N14339 1996 71 NA NA FRAN 1996-08-29 06:00:00 TS 17.0000 -55.0000 65 987 hurdat_atl main 957 940 O_____________ hurdat_atl AL061996 17.0000 -55.0000 HU 65 987 1 14 300
1996237N14339 1996 71 NA NA FRAN 1996-08-29 09:00:00 TS 17.3849 -55.6576 main 943 935 P_____________ AL061996 17.3849 -55.6576 HU 65 987 1 15 303
1996237N14339 1996 71 NA NA FRAN 1996-08-29 12:00:00 TS 17.8000 -56.3000 65 988 hurdat_atl main 942 918 O_____________ hurdat_atl AL061996 17.8000 -56.3000 HU 65 988 1 15 305
1996237N14339 1996 71 NA NA FRAN 1996-08-29 15:00:00 TS 18.2224 -56.9225 main 918 854 P_____________ AL061996 18.2224 -56.9225 HU 65 988 1 14 305
1996237N14339 1996 71 NA NA FRAN 1996-08-29 18:00:00 TS 18.6000 -57.5000 65 988 hurdat_atl main 854 802 O_____________ hurdat_atl AL061996 18.6000 -57.5000 HU 65 988 1 12 303
1996237N14339 1996 71 NA NA FRAN 1996-08-29 21:00:00 TS 18.8873 -58.0228 main 802 751 P_____________ AL061996 18.8873 -58.0228 HU 65 989 1 11 298
1996237N14339 1996 71 NA NA FRAN 1996-08-30 00:00:00 TS 19.1000 -58.5000 65 991 hurdat_atl main 751 710 O_____________ hurdat_atl AL061996 19.1000 -58.5000 HU 65 991 1 10 292
1996237N14339 1996 71 NA NA FRAN 1996-08-30 03:00:00 TS 19.2574 -58.9727 main 701 661 P_____________ AL061996 19.2574 -58.9727 HU 65 991 1 9 289
1996237N14339 1996 71 NA NA FRAN 1996-08-30 06:00:00 TS 19.4000 -59.4000 65 991 hurdat_atl main 661 624 O_____________ hurdat_atl AL061996 19.4000 -59.4000 HU 65 991 1 8 294
1996237N14339 1996 71 NA NA FRAN 1996-08-30 09:00:00 TS 19.5924 -59.7800 main 624 598 P_____________ AL061996 19.5924 -59.7800 HU 65 990 1 8 301
1996237N14339 1996 71 NA NA FRAN 1996-08-30 12:00:00 TS 19.8000 -60.1000 65 989 hurdat_atl main 598 574 O_____________ hurdat_atl AL061996 19.8000 -60.1000 HU 65 989 1 7 306
1996237N14339 1996 71 NA NA FRAN 1996-08-30 15:00:00 TS 20.0074 -60.3800 main 574 561 P_____________ AL061996 20.0074 -60.3800 HU 62 989 0 6 310
1996237N14339 1996 71 NA NA FRAN 1996-08-30 18:00:00 TS 20.2000 -60.6000 60 990 hurdat_atl main 561 546 O_____________ hurdat_atl AL061996 20.2000 -60.6000 TS 60 990 0 5 314
1996237N14339 1996 71 NA NA FRAN 1996-08-30 21:00:00 TS 20.3574 -60.7651 main 550 545 P_____________ AL061996 20.3574 -60.7651 TS 60 989 0 4 317
1996237N14339 1996 71 NA NA FRAN 1996-08-31 00:00:00 TS 20.5000 -60.9000 60 988 hurdat_atl main 545 536 O_____________ hurdat_atl AL061996 20.5000 -60.9000 TS 60 988 0 4 317
1996237N14339 1996 71 NA NA FRAN 1996-08-31 03:00:00 TS 20.6500 -61.0575 main 537 533 P_____________ AL061996 20.6500 -61.0575 TS 60 987 0 4 317
1996237N14339 1996 71 NA NA FRAN 1996-08-31 06:00:00 TS 20.8000 -61.2000 60 987 hurdat_atl main 533 529 O_____________ hurdat_atl AL061996 20.8000 -61.2000 TS 60 987 0 4 322
1996237N14339 1996 71 NA NA FRAN 1996-08-31 09:00:00 TS 20.9425 -61.3001 main 529 527 P_____________ AL061996 20.9425 -61.3001 TS 62 985 0 4 329
1996237N14339 1996 71 NA NA FRAN 1996-08-31 12:00:00 TS 21.1000 -61.4000 65 984 hurdat_atl main 533 531 O_____________ hurdat_atl AL061996 21.1000 -61.4000 HU 65 984 1 4 329
1996237N14339 1996 71 NA NA FRAN 1996-08-31 15:00:00 TS 21.3075 -61.5350 main 537 529 P_____________ AL061996 21.3075 -61.5350 HU 65 983 1 5 325
1996237N14339 1996 71 NA NA FRAN 1996-08-31 18:00:00 TS 21.5000 -61.7000 65 983 hurdat_atl main 535 526 O_____________ hurdat_atl AL061996 21.5000 -61.7000 HU 65 983 1 4 313
1996237N14339 1996 71 NA NA FRAN 1996-08-31 21:00:00 TS 21.6150 -61.8851 main 526 519 P_____________ AL061996 21.6150 -61.8851 HU 65 980 1 4 298
1996237N14339 1996 71 NA NA FRAN 1996-09-01 00:00:00 TS 21.7000 -62.1000 65 978 hurdat_atl main 519 512 O_____________ hurdat_atl AL061996 21.7000 -62.1000 HU 65 978 1 5 293
1996237N14339 1996 71 NA NA FRAN 1996-09-01 03:00:00 TS 21.7925 -62.3351 main 513 499 P_____________ AL061996 21.7925 -62.3351 HU 65 980 1 5 293
1996237N14339 1996 71 NA NA FRAN 1996-09-01 06:00:00 TS 21.9000 -62.6000 65 982 hurdat_atl main 501 491 O_____________ hurdat_atl AL061996 21.9000 -62.6000 HU 65 982 1 6 296
1996237N14339 1996 71 NA NA FRAN 1996-09-01 09:00:00 TS 22.0424 -62.8850 main 491 489 P_____________ AL061996 22.0424 -62.8850 HU 67 982 1 6 298
1996237N14339 1996 71 NA NA FRAN 1996-09-01 12:00:00 TS 22.2000 -63.2000 70 982 hurdat_atl main 493 487 O_____________ hurdat_atl AL061996 22.2000 -63.2000 HU 70 982 1 7 297
1996237N14339 1996 71 NA NA FRAN 1996-09-01 15:00:00 TS 22.3424 -63.5351 main 488 485 P_____________ AL061996 22.3424 -63.5351 HU 72 981 1 7 295
1996237N14339 1996 71 NA NA FRAN 1996-09-01 18:00:00 TS 22.5000 -63.9000 75 981 hurdat_atl main 491 487 O_____________ hurdat_atl AL061996 22.5000 -63.9000 HU 75 981 1 8 297
1996237N14339 1996 71 NA NA FRAN 1996-09-01 21:00:00 TS 22.6923 -64.2776 main 499 496 P_____________ AL061996 22.6923 -64.2776 HU 75 979 1 8 298
1996237N14339 1996 71 NA NA FRAN 1996-09-02 00:00:00 TS 22.9000 -64.7000 75 978 hurdat_atl main 511 510 O_____________ hurdat_atl AL061996 22.9000 -64.7000 HU 75 978 1 9 296
1996237N14339 1996 71 NA NA FRAN 1996-09-02 03:00:00 TS 23.1075 -65.1850 main 527 526 P_____________ AL061996 23.1075 -65.1850 HU 75 977 1 10 294
1996237N14339 1996 71 NA NA FRAN 1996-09-02 06:00:00 TS 23.3000 -65.7000 75 976 hurdat_atl main 547 547 O_____________ hurdat_atl AL061996 23.3000 -65.7000 HU 75 976 1 10 291
1996237N14339 1996 71 NA NA FRAN 1996-09-02 09:00:00 TS 23.4572 -66.1852 main 568 550 P_____________ AL061996 23.4572 -66.1852 HU 75 976 1 10 288
1996237N14339 1996 71 NA NA FRAN 1996-09-02 12:00:00 TS 23.6000 -66.7000 75 976 hurdat_atl main 550 533 O_____________ hurdat_atl AL061996 23.6000 -66.7000 HU 75 976 1 11 286
1996237N14339 1996 71 NA NA FRAN 1996-09-02 15:00:00 TS 23.7500 -67.2926 main 543 526 P_____________ AL061996 23.7500 -67.2926 HU 75 976 1 11 285
1996237N14339 1996 71 NA NA FRAN 1996-09-02 18:00:00 TS 23.9000 -67.9000 75 976 hurdat_atl main 527 518 O_____________ hurdat_atl AL061996 23.9000 -67.9000 HU 75 976 1 11 286
1996237N14339 1996 71 NA NA FRAN 1996-09-02 21:00:00 TS 24.0572 -68.4576 main 526 515 P_____________ AL061996 24.0572 -68.4576 HU 75 976 1 10 287
1996237N14339 1996 71 NA NA FRAN 1996-09-03 00:00:00 TS 24.2000 -69.0000 75 977 hurdat_atl main 518 498 O_____________ hurdat_atl AL061996 24.2000 -69.0000 HU 75 977 1 10 284
1996237N14339 1996 71 NA NA FRAN 1996-09-03 03:00:00 TS 24.2998 -69.5503 main 491 464 P_____________ AL061996 24.2998 -69.5503 HU 77 976 1 10 281
1996237N14339 1996 71 NA NA FRAN 1996-09-03 06:00:00 TS 24.4000 -70.1000 80 975 hurdat_atl main 464 443 O_____________ hurdat_atl AL061996 24.4000 -70.1000 HU 80 975 1 10 283
1996237N14339 1996 71 NA NA FRAN 1996-09-03 09:00:00 TS 24.5274 -70.6577 main 437 426 P_____________ AL061996 24.5274 -70.6577 HU 80 974 1 10 287
1996237N14339 1996 71 NA NA FRAN 1996-09-03 12:00:00 TS 24.7000 -71.2000 80 973 hurdat_atl main 432 428 O_____________ hurdat_atl AL061996 24.7000 -71.2000 HU 80 973 1 10 293
1996237N14339 1996 71 NA NA FRAN 1996-09-03 15:00:00 TS 24.9348 -71.7150 main 434 434 P_____________ AL061996 24.9348 -71.7150 HU 82 970 1 10 299
1996237N14339 1996 71 NA NA FRAN 1996-09-03 18:00:00 TS 25.2000 -72.2000 85 968 hurdat_atl main 454 452 O_____________ hurdat_atl AL061996 25.2000 -72.2000 HU 85 968 2 10 300
1996237N14339 1996 71 NA NA FRAN 1996-09-03 21:00:00 TS 25.4349 -72.6653 main 470 470 P_____________ AL061996 25.4349 -72.6653 HU 90 964 2 10 302
1996237N14339 1996 71 NA NA FRAN 1996-09-04 00:00:00 TS 25.7000 -73.1000 95 961 hurdat_atl main 481 454 O_____________ hurdat_atl AL061996 25.7000 -73.1000 HU 95 961 2 10 309
1996237N14339 1996 71 NA NA FRAN 1996-09-04 03:00:00 TS 26.0423 -73.5076 main 454 434 P_____________ AL061996 26.0423 -73.5076 HU 97 957 3 10 314
1996237N14339 1996 71 NA NA FRAN 1996-09-04 06:00:00 TS 26.4000 -73.9000 100 953 hurdat_atl main 434 410 O_____________ hurdat_atl AL061996 26.4000 -73.9000 HU 100 953 3 10 313
1996237N14339 1996 71 NA NA FRAN 1996-09-04 09:00:00 TS 26.6999 -74.3004 main 410 391 P_____________ AL061996 26.6999 -74.3004 HU 102 954 3 9 310
1996237N14339 1996 71 NA NA FRAN 1996-09-04 12:00:00 TS 27.0000 -74.7000 105 956 hurdat_atl main 391 379 O_____________ hurdat_atl AL061996 27.0000 -74.7000 HU 105 956 3 10 311
1996237N14339 1996 71 NA NA FRAN 1996-09-04 15:00:00 TS 27.3275 -75.1152 main 379 372 P_____________ AL061996 27.3275 -75.1152 HU 105 954 3 10 315
1996237N14339 1996 71 NA NA FRAN 1996-09-04 18:00:00 TS 27.7000 -75.5000 105 952 hurdat_atl main 382 382 O_____________ hurdat_atl AL061996 27.7000 -75.5000 HU 105 952 3 10 322
1996237N14339 1996 71 NA NA FRAN 1996-09-04 21:00:00 TS 28.1123 -75.8155 main 400 400 P_____________ AL061996 28.1123 -75.8155 HU 105 949 3 10 330
1996237N14339 1996 71 NA NA FRAN 1996-09-05 00:00:00 TS 28.6000 -76.1000 105 946 hurdat_atl main 429 404 O_____________ hurdat_atl AL061996 28.6000 -76.1000 HU 105 946 3 12 334
1996237N14339 1996 71 NA NA FRAN 1996-09-05 03:00:00 TS 29.1775 -76.4075 main 406 392 P_____________ AL061996 29.1775 -76.4075 HU 105 949 3 13 336
1996237N14339 1996 71 NA NA FRAN 1996-09-05 06:00:00 TS 29.8000 -76.7000 105 952 hurdat_atl main 396 373 O_____________ hurdat_atl AL061996 29.8000 -76.7000 HU 105 952 3 13 339
1996237N14339 1996 71 NA NA FRAN 1996-09-05 09:00:00 TS 30.3924 -76.9506 main 368 304 P_____________ AL061996 30.3924 -76.9506 HU 102 953 3 13 340
1996237N14339 1996 71 NA NA FRAN 1996-09-05 12:00:00 TS 31.0000 -77.2000 100 954 hurdat_atl main 304 236 O_____________ hurdat_atl AL061996 31.0000 -77.2000 HU 100 954 3 13 338
1996237N14339 1996 71 NA NA FRAN 1996-09-05 15:00:00 TS 31.6351 -77.5221 main 236 164 P_____________ AL061996 31.6351 -77.5221 HU 100 953 3 14 339
1996237N14339 1996 71 NA NA FRAN 1996-09-05 18:00:00 TS 32.3000 -77.8000 100 952 hurdat_atl main 164 122 O_____________ hurdat_atl AL061996 32.3000 -77.8000 HU 100 952 3 13 343
1996237N14339 1996 71 NA NA FRAN 1996-09-05 21:00:00 TS 32.8475 -77.9525 main 120 33 P_____________ AL061996 32.8475 -77.9525 HU 100 953 3 14 353
1996237N14339 1996 71 NA NA FRAN 1996-09-06 00:00:00 TS 33.7000 -78.0000 100 954 hurdat_atl main 22 0 O_____________ hurdat_atl AL061996 33.7000 -78.0000 HU 100 954 3 18 358
1996237N14339 1996 71 NA NA FRAN 1996-09-06 00:30:00 TS 33.9000 -78.0000 100 954 hurdat_atl main 0 0 O_____________ hurdat_atl AL061996 33.9000 -78.0000 L HU 100 954 3 19 348
1996237N14339 1996 71 NA NA FRAN 1996-09-06 03:00:00 TS 34.6251 -78.2315 main 0 0 P_____________ AL061996 34.6251 -78.2315 HU 84 961 2 16 336
1996237N14339 1996 71 NA NA FRAN 1996-09-06 06:00:00 TS 35.2000 -78.7000 65 970 hurdat_atl main 0 0 O_____________ hurdat_atl AL061996 35.2000 -78.7000 HU 65 970 1 14 338
1996237N14339 1996 71 NA NA FRAN 1996-09-06 09:00:00 TS 35.9581 -78.8802 main 0 0 P_____________ AL061996 35.9581 -78.8802 HU 52 977 0 15 351
1996237N14339 1996 71 NA NA FRAN 1996-09-06 12:00:00 TS 36.7000 -79.0000 40 985 hurdat_atl main 0 0 O_____________ hurdat_atl AL061996 36.7000 -79.0000 TS 40 985 0 14 350
1996237N14339 1996 71 NA NA FRAN 1996-09-06 15:00:00 TS 37.3724 -79.1854 main 0 0 P_____________ AL061996 37.3724 -79.1854 TS 35 990 0 13 346
1996237N14339 1996 71 NA NA FRAN 1996-09-06 18:00:00 TS 38.0000 -79.4000 30 995 hurdat_atl main 0 0 O_____________ hurdat_atl AL061996 38.0000 -79.4000 TD 30 995 -1 13 344
1996237N14339 1996 71 NA NA FRAN 1996-09-06 21:00:00 TS 38.6075 -79.6428 main 0 0 P_____________ AL061996 38.6075 -79.6428 TD 30 997 -1 13 342
1996237N14339 1996 71 NA NA FRAN 1996-09-07 00:00:00 TS 39.2000 -79.9000 30 1000 hurdat_atl main 0 0 O_____________ hurdat_atl AL061996 39.2000 -79.9000 TD 30 1000 -1 13 341
1996237N14339 1996 71 NA NA FRAN 1996-09-07 03:00:00 TS 39.8301 -80.1795 main 0 0 P_____________ AL061996 39.8301 -80.1795 TD 30 1000 -1 13 342
1996237N14339 1996 71 NA NA FRAN 1996-09-07 06:00:00 TS 40.4000 -80.4000 30 1001 hurdat_atl main 0 0 O_____________ hurdat_atl AL061996 40.4000 -80.4000 TD 30 1001 -1 10 346
1996237N14339 1996 71 NA NA FRAN 1996-09-07 09:00:00 TS 40.8299 -80.4956 main 0 0 P_____________ AL061996 40.8299 -80.4956 TD 30 1001 -1 8 354
1996237N14339 1996 71 NA NA FRAN 1996-09-07 12:00:00 TS 41.2000 -80.5000 30 1001 hurdat_atl main 0 0 O_____________ hurdat_atl AL061996 41.2000 -80.5000 TD 30 1001 -1 8 1
1996237N14339 1996 71 NA NA FRAN 1996-09-07 15:00:00 TS 41.6000 -80.4799 main 0 0 P_____________ AL061996 41.6000 -80.4799 TD 30 1000 -1 8 6
1996237N14339 1996 71 NA NA FRAN 1996-09-07 18:00:00 TS 42.0000 -80.4000 30 1000 hurdat_atl main 0 0 O_____________ hurdat_atl AL061996 42.0000 -80.4000 TD 30 1000 -1 8 11
1996237N14339 1996 71 NA NA FRAN 1996-09-07 21:00:00 TS 42.4150 -80.2578 main 0 0 P_____________ AL061996 42.4150 -80.2578 TD 30 999 -1 8 15
1996237N14339 1996 71 NA NA FRAN 1996-09-08 00:00:00 TS 42.8000 -80.1000 30 999 hurdat_atl main 0 0 O_____________ hurdat_atl AL061996 42.8000 -80.1000 TD 30 999 -1 7 13
1996237N14339 1996 71 NA NA FRAN 1996-09-08 03:00:00 TS 43.1147 -80.0439 main 0 0 P_____________ AL061996 43.1147 -80.0439 TD 30 999 -1 6 14
1996237N14339 1996 71 NA NA FRAN 1996-09-08 06:00:00 TS 43.4000 -79.9000 30 999 hurdat_atl main 0 0 O_____________ hurdat_atl AL061996 43.4000 -79.9000 TD 30 999 -1 7 32
1996237N14339 1996 71 NA NA FRAN 1996-09-08 09:00:00 TS 43.7072 -79.5400 main 0 0 P_____________ AL061996 43.7072 -79.5400 TD 27 999 -1 9 47
1996237N14339 1996 71 NA NA FRAN 1996-09-08 12:00:00 TS 44.0000 -79.0000 25 1000 hurdat_atl main 0 0 O_____________ hurdat_atl AL061996 44.0000 -79.0000 TD 25 1000 -1 10 57
1996237N14339 1996 71 NA NA FRAN 1996-09-08 15:00:00 TS 44.2647 -78.3597 main 0 0 P_____________ AL061996 44.2647 -78.3597 TD 25 1000 -1 11 63
1996237N14339 1996 71 NA NA FRAN 1996-09-08 18:00:00 TS 44.5000 -77.6000 25 1001 hurdat_atl main 0 0 O_____________ hurdat_atl AL061996 44.5000 -77.6000 TD 25 1001 -1 12 69
1996237N14339 1996 71 NA NA FRAN 1996-09-08 21:00:00 TS 44.6995 -76.7863 main 0 0 P_____________ AL061996 44.6995 -76.7863 TD 25 1001 -1 13 72
1996237N14339 1996 71 NA NA FRAN 1996-09-09 00:00:00 ET 44.9000 -75.9000 25 1002 hurdat_atl main 0 0 O_____________ hurdat_atl AL061996 44.9000 -75.9000 EX 25 1002 -4 14 71
1996237N14339 1996 71 NA NA FRAN 1996-09-09 03:00:00 ET 45.1574 -74.9506 main 0 0 P_____________ AL061996 45.1574 -74.9506 EX 22 1003 -4 14 70
1996237N14339 1996 71 NA NA FRAN 1996-09-09 06:00:00 ET 45.4000 -74.0000 20 1004 hurdat_atl main 0 0 O_____________ hurdat_atl AL061996 45.4000 -74.0000 EX 20 1004 -4 14 73
1996237N14339 1996 71 NA NA FRAN 1996-09-09 09:00:00 ET 45.5647 -73.0965 main 0 0 P_____________ AL061996 45.5647 -73.0965 EX 17 1005 -4 12 76
1996237N14339 1996 71 NA NA FRAN 1996-09-09 12:00:00 ET 45.7000 -72.3000 15 1006 hurdat_atl main 0 0 O_____________ hurdat_atl AL061996 45.7000 -72.3000 EX 15 1006 -4 10 76
1996237N14339 1996 71 NA NA FRAN 1996-09-09 15:00:00 ET 45.8191 -71.6536 main 0 0 P_____________ AL061996 45.8191 -71.6536 EX 15 1007 -4 9 70
1996237N14339 1996 71 NA NA FRAN 1996-09-09 18:00:00 ET 46.0000 -71.1000 15 1008 hurdat_atl main 0 0 O_____________ hurdat_atl AL061996 46.0000 -71.1000 EX 15 1008 -4 9 57
1996237N14339 1996 71 NA NA FRAN 1996-09-09 21:00:00 ET 46.3108 -70.5548 main 0 0 P_____________ AL061996 46.3108 -70.5548 EX 15 1009 -4 10 47
1996237N14339 1996 71 NA NA FRAN 1996-09-10 00:00:00 ET 46.7000 -70.0000 15 1010 hurdat_atl main 0 O_____________ hurdat_atl AL061996 46.7000 -70.0000 EX 15 1010 -4 11 44

About IBTrACS Database

This database is a web-friendly format of International Best Track Archive for Climate Stewardship (IBTrACS), a global best track data archive curated by NOAA dating back to 1842.

Updated: 2021-10-08